createdAt,value
2018-07-24T00:00:19.139Z,0.10
2018-07-24T00:01:19.039Z,0.10
2018-07-24T00:02:18.947Z,0.10
2018-07-24T00:03:18.856Z,0.10
2018-07-24T00:04:18.765Z,0.10
2018-07-24T00:05:18.659Z,0.10
2018-07-24T00:06:18.569Z,0.00
2018-07-24T00:07:18.478Z,0.10
2018-07-24T00:08:18.375Z,0.10
2018-07-24T00:09:18.287Z,0.10
2018-07-24T00:10:18.199Z,0.10
2018-07-24T00:11:18.105Z,0.10
2018-07-24T00:12:18.002Z,0.10
2018-07-24T00:13:17.912Z,0.10
2018-07-24T00:14:17.820Z,0.10
2018-07-24T00:15:17.717Z,0.10
2018-07-24T00:16:17.624Z,0.10
2018-07-24T00:17:17.533Z,0.10
2018-07-24T00:18:17.431Z,0.10
2018-07-24T00:19:17.338Z,0.10
2018-07-24T00:20:17.247Z,0.10
2018-07-24T00:21:17.150Z,0.10
2018-07-24T00:22:17.055Z,0.00
2018-07-24T00:23:16.967Z,0.10
2018-07-24T00:24:16.862Z,0.00
2018-07-24T00:25:16.768Z,0.10
2018-07-24T00:26:16.683Z,0.10
2018-07-24T00:27:16.576Z,0.10
2018-07-24T00:28:16.485Z,0.10
2018-07-24T00:29:16.393Z,0.10
2018-07-24T00:30:16.301Z,0.10
2018-07-24T00:31:16.198Z,0.10
2018-07-24T00:32:16.185Z,0.10
2018-07-24T00:33:16.032Z,0.10
2018-07-24T00:34:15.915Z,0.10
2018-07-24T00:35:15.825Z,0.10
2018-07-24T00:36:15.733Z,0.10
2018-07-24T00:37:15.632Z,0.10
2018-07-24T00:38:15.538Z,0.10
2018-07-24T00:39:15.696Z,0.10
2018-07-24T00:40:15.344Z,0.10
2018-07-24T00:41:15.255Z,0.10
2018-07-24T00:42:15.164Z,0.10
2018-07-24T00:43:15.061Z,0.10
2018-07-24T00:44:14.971Z,0.10
2018-07-24T00:45:14.879Z,0.10
2018-07-24T00:46:14.788Z,0.10
2018-07-24T00:47:14.686Z,0.10
2018-07-24T00:48:14.594Z,0.10
2018-07-24T00:49:14.490Z,0.10
2018-07-24T00:50:14.398Z,0.10
2018-07-24T00:51:14.306Z,0.10
2018-07-24T00:52:14.203Z,0.10
2018-07-24T00:53:14.116Z,0.10
2018-07-24T00:54:14.054Z,0.10
2018-07-24T00:55:13.921Z,0.20
2018-07-24T00:56:13.832Z,0.10
2018-07-24T00:57:13.740Z,0.10
2018-07-24T00:58:13.633Z,0.10
2018-07-24T00:59:13.544Z,0.10
2018-07-24T01:00:13.441Z,0.10
2018-07-24T01:01:13.351Z,0.10
2018-07-24T01:02:13.262Z,0.10
2018-07-24T01:03:13.157Z,0.10
2018-07-24T01:04:13.066Z,0.10
2018-07-24T01:05:12.974Z,0.10
2018-07-24T01:06:12.871Z,0.10
2018-07-24T01:07:12.779Z,0.10
2018-07-24T01:08:12.689Z,0.10
2018-07-24T01:09:12.589Z,0.10
2018-07-24T01:10:12.498Z,0.10
2018-07-24T01:11:12.406Z,0.10
2018-07-24T01:12:12.303Z,0.10
2018-07-24T01:13:12.209Z,0.10
2018-07-24T01:14:12.119Z,0.10
2018-07-24T01:15:12.016Z,0.10
2018-07-24T01:16:11.925Z,0.10
2018-07-24T01:17:11.826Z,0.10
2018-07-24T01:18:11.731Z,0.10
2018-07-24T01:19:11.639Z,0.10
2018-07-24T01:20:11.536Z,0.10
2018-07-24T01:21:11.449Z,0.10
2018-07-24T01:22:11.357Z,0.10
2018-07-24T01:23:11.253Z,0.10
2018-07-24T01:24:11.164Z,0.10
2018-07-24T01:25:11.072Z,0.10
2018-07-24T01:26:10.981Z,0.10
2018-07-24T01:27:10.876Z,0.10
2018-07-24T01:28:10.773Z,0.10
2018-07-24T01:29:10.687Z,0.10
2018-07-24T01:30:10.594Z,0.10
2018-07-24T01:31:10.489Z,0.10
2018-07-24T01:32:10.399Z,0.10
2018-07-24T01:33:10.307Z,0.10
2018-07-24T01:34:10.207Z,0.10
2018-07-24T01:35:10.113Z,0.10
2018-07-24T01:36:10.010Z,0.10
2018-07-24T01:37:09.919Z,0.10
2018-07-24T01:38:09.826Z,0.10
2018-07-24T01:39:09.728Z,0.10
2018-07-24T01:40:09.633Z,0.10
2018-07-24T01:41:09.543Z,0.10
2018-07-24T01:42:09.440Z,0.10
2018-07-24T01:43:09.350Z,0.10
2018-07-24T01:44:09.247Z,0.10
2018-07-24T01:45:09.155Z,0.10
2018-07-24T01:46:09.063Z,0.10
2018-07-24T01:47:08.961Z,0.10
2018-07-24T01:48:08.868Z,0.10
2018-07-24T01:49:08.778Z,0.10
2018-07-24T01:50:08.675Z,0.10
2018-07-24T01:51:08.583Z,0.10
2018-07-24T01:52:08.482Z,0.10
2018-07-24T01:53:08.396Z,0.10
2018-07-24T01:54:08.300Z,0.10
2018-07-24T01:55:08.210Z,0.10
2018-07-24T01:56:08.107Z,0.10
2018-07-24T01:57:08.006Z,0.10
2018-07-24T01:58:07.910Z,0.10
2018-07-24T01:59:07.820Z,0.10
2018-07-24T02:00:07.717Z,0.10
2018-07-24T02:01:07.627Z,0.10
2018-07-24T02:02:07.538Z,0.10
2018-07-24T02:03:07.434Z,0.10
2018-07-24T02:04:07.343Z,0.10
2018-07-24T02:05:07.239Z,0.10
2018-07-24T02:06:07.149Z,0.10
2018-07-24T02:07:07.057Z,0.10
2018-07-24T02:08:06.955Z,0.10
2018-07-24T02:09:06.862Z,0.10
2018-07-24T02:10:06.759Z,0.10
2018-07-24T02:11:06.667Z,0.10
2018-07-24T02:12:06.577Z,0.10
2018-07-24T02:13:06.475Z,0.10
2018-07-24T02:14:06.384Z,0.10
2018-07-24T02:15:06.282Z,0.10
2018-07-24T02:16:06.191Z,0.10
2018-07-24T02:17:06.100Z,0.10
2018-07-24T02:18:05.995Z,0.10
2018-07-24T02:19:05.907Z,0.10
2018-07-24T02:20:05.802Z,0.10
2018-07-24T02:21:05.709Z,0.10
2018-07-24T02:22:05.619Z,0.10
2018-07-24T02:23:05.515Z,0.10
2018-07-24T02:24:05.424Z,0.10
2018-07-24T02:25:05.324Z,0.10
2018-07-24T02:26:05.234Z,0.10
2018-07-24T02:27:05.141Z,0.10
2018-07-24T02:28:05.037Z,0.10
2018-07-24T02:29:04.947Z,0.10
2018-07-24T02:30:04.854Z,0.10
2018-07-24T02:31:04.752Z,0.10
2018-07-24T02:32:04.661Z,0.10
2018-07-24T02:33:04.560Z,0.10
2018-07-24T02:34:04.470Z,0.10
2018-07-24T02:35:04.367Z,0.10
2018-07-24T02:36:04.276Z,0.10
2018-07-24T02:37:04.185Z,0.10
2018-07-24T02:38:04.080Z,0.10
2018-07-24T02:39:03.989Z,0.10
2018-07-24T02:40:03.887Z,0.00
2018-07-24T02:41:03.793Z,0.10
2018-07-24T02:42:03.707Z,0.10
2018-07-24T02:43:03.600Z,0.10
2018-07-24T02:44:03.508Z,0.10
2018-07-24T02:45:03.409Z,0.10
2018-07-24T02:46:03.317Z,0.10
2018-07-24T02:47:03.225Z,0.10
2018-07-24T02:48:03.122Z,0.10
2018-07-24T02:49:03.032Z,0.10
2018-07-24T02:50:02.927Z,0.10
2018-07-24T02:51:02.849Z,0.10
2018-07-24T02:52:02.734Z,0.10
2018-07-24T02:53:02.642Z,0.10
2018-07-24T02:54:02.557Z,0.10
2018-07-24T02:55:02.449Z,0.10
2018-07-24T02:56:02.358Z,0.10
2018-07-24T02:57:02.256Z,0.10
2018-07-24T02:58:02.167Z,0.10
2018-07-24T02:59:02.076Z,0.10
2018-07-24T03:00:01.971Z,0.10
2018-07-24T03:01:01.879Z,0.10
2018-07-24T03:02:01.774Z,0.10
2018-07-24T03:03:01.684Z,0.10
2018-07-24T03:04:01.594Z,0.10
2018-07-24T03:05:01.491Z,0.10
2018-07-24T03:06:01.401Z,0.10
2018-07-24T03:07:01.297Z,0.10
2018-07-24T03:08:01.206Z,0.10
2018-07-24T03:09:01.253Z,0.10
2018-07-24T03:10:01.011Z,0.10
2018-07-24T03:11:00.921Z,0.10
2018-07-24T03:12:00.816Z,0.10
2018-07-24T03:13:00.773Z,0.10
2018-07-24T03:14:00.624Z,0.10
2018-07-24T03:15:00.533Z,0.10
2018-07-24T03:16:00.449Z,0.00
2018-07-24T03:17:00.338Z,0.10
2018-07-24T03:18:00.247Z,0.10
2018-07-24T03:19:00.143Z,0.10
2018-07-24T03:20:00.053Z,0.10
2018-07-24T03:20:59.963Z,0.10
2018-07-24T03:21:59.860Z,0.10
2018-07-24T03:22:59.769Z,0.10
2018-07-24T03:23:59.916Z,0.10
2018-07-24T03:24:59.578Z,0.10
2018-07-24T03:25:59.472Z,0.10
2018-07-24T03:26:59.381Z,0.10
2018-07-24T03:27:59.303Z,0.10
2018-07-24T03:28:59.184Z,0.10
2018-07-24T03:29:59.095Z,0.10
2018-07-24T03:30:58.992Z,0.10
2018-07-24T03:31:58.907Z,0.10
2018-07-24T03:32:58.804Z,0.10
2018-07-24T03:33:58.708Z,0.10
2018-07-24T03:34:58.616Z,0.10
2018-07-24T03:35:58.513Z,0.10
2018-07-24T03:36:58.421Z,0.10
2018-07-24T03:37:58.318Z,0.10
2018-07-24T03:38:58.227Z,0.10
2018-07-24T03:39:58.136Z,0.10
2018-07-24T03:40:58.034Z,0.10
2018-07-24T03:41:57.941Z,0.10
2018-07-24T03:42:57.838Z,0.10
2018-07-24T03:43:57.999Z,0.00
2018-07-24T03:44:57.697Z,0.10
2018-07-24T03:45:57.557Z,0.10
2018-07-24T03:46:57.465Z,0.10
2018-07-24T03:47:57.362Z,0.10
2018-07-24T03:48:57.268Z,0.10
2018-07-24T03:49:57.165Z,0.10
2018-07-24T03:50:57.075Z,0.10
2018-07-24T03:51:56.983Z,0.10
2018-07-24T03:52:56.881Z,0.10
2018-07-24T03:53:56.792Z,0.10
2018-07-24T03:54:56.688Z,0.10
2018-07-24T03:55:56.597Z,0.10
2018-07-24T03:56:56.511Z,0.10
2018-07-24T03:57:56.453Z,0.10
2018-07-24T03:58:56.312Z,0.10
2018-07-24T03:59:56.209Z,0.10
2018-07-24T04:00:56.117Z,0.10
2018-07-24T04:01:56.027Z,0.10
2018-07-24T04:02:55.922Z,0.10
2018-07-24T04:03:55.832Z,0.10
2018-07-24T04:04:55.735Z,0.10
2018-07-24T04:05:55.639Z,0.10
2018-07-24T04:06:55.548Z,0.10
2018-07-24T04:07:55.445Z,0.10
2018-07-24T04:08:55.352Z,0.10
2018-07-24T04:09:55.262Z,0.10
2018-07-24T04:10:55.160Z,0.10
2018-07-24T04:11:55.067Z,0.10
2018-07-24T04:12:54.965Z,0.10
2018-07-24T04:13:54.874Z,0.10
2018-07-24T04:14:54.782Z,0.10
2018-07-24T04:15:54.679Z,0.10
2018-07-24T04:16:54.591Z,0.10
2018-07-24T04:17:54.499Z,0.10
2018-07-24T04:18:54.396Z,0.10
2018-07-24T04:19:54.306Z,0.10
2018-07-24T04:20:54.212Z,0.10
2018-07-24T04:21:54.109Z,0.10
2018-07-24T04:22:54.020Z,0.10
2018-07-24T04:23:53.916Z,0.10
2018-07-24T04:24:53.826Z,0.10
2018-07-24T04:25:53.736Z,0.10
2018-07-24T04:26:53.632Z,0.10
2018-07-24T04:27:53.540Z,0.10
2018-07-24T04:28:53.453Z,0.10
2018-07-24T04:29:53.359Z,0.10
2018-07-24T04:30:53.314Z,0.10
2018-07-24T04:31:53.166Z,0.10
2018-07-24T04:32:53.072Z,0.10
2018-07-24T04:33:52.968Z,0.10
2018-07-24T04:34:52.878Z,0.10
2018-07-24T04:35:52.788Z,0.10
2018-07-24T04:36:52.699Z,0.10
2018-07-24T04:37:52.597Z,0.10
2018-07-24T04:38:52.504Z,0.10
2018-07-24T04:39:52.430Z,0.10
2018-07-24T04:40:52.310Z,0.10
2018-07-24T04:41:52.221Z,0.10
2018-07-24T04:42:52.116Z,0.20
2018-07-24T04:43:52.025Z,0.10
2018-07-24T04:44:51.932Z,0.10
2018-07-24T04:45:51.843Z,0.10
2018-07-24T04:46:51.764Z,0.10
2018-07-24T04:47:51.648Z,0.20
2018-07-24T04:48:51.560Z,0.20
2018-07-24T04:49:51.468Z,0.20
2018-07-24T04:50:51.379Z,0.30
2018-07-24T04:51:51.286Z,0.20
2018-07-24T04:52:51.201Z,0.30
2018-07-24T04:53:51.102Z,0.20
2018-07-24T04:54:50.999Z,0.30
2018-07-24T04:55:50.909Z,0.30
2018-07-24T04:56:50.823Z,0.30
2018-07-24T04:57:50.730Z,0.30
2018-07-24T04:58:50.893Z,0.30
2018-07-24T04:59:50.548Z,0.40
2018-07-24T05:00:50.458Z,0.30
2018-07-24T05:01:50.367Z,0.50
2018-07-24T05:02:50.279Z,0.30
2018-07-24T05:03:50.188Z,0.40
2018-07-24T05:04:50.091Z,0.30
2018-07-24T05:05:50.000Z,0.50
2018-07-24T05:06:49.909Z,0.40
2018-07-24T05:07:49.821Z,0.50
2018-07-24T05:08:49.743Z,0.50
2018-07-24T05:09:49.641Z,0.60
2018-07-24T05:10:49.552Z,0.50
2018-07-24T05:11:49.460Z,0.60
2018-07-24T05:12:49.365Z,0.70
2018-07-24T05:13:49.276Z,0.50
2018-07-24T05:14:49.188Z,0.60
2018-07-24T05:15:49.105Z,0.60
2018-07-24T05:16:49.025Z,0.60
2018-07-24T05:17:48.926Z,0.70
2018-07-24T05:18:48.836Z,0.70
2018-07-24T05:19:48.745Z,0.70
2018-07-24T05:20:48.652Z,0.80
2018-07-24T05:21:48.560Z,0.70
2018-07-24T05:22:48.471Z,0.70
2018-07-24T05:23:48.392Z,0.60
2018-07-24T05:24:48.302Z,0.60
2018-07-24T05:25:48.254Z,0.70
2018-07-24T05:26:48.121Z,0.90
2018-07-24T05:27:48.034Z,0.70
2018-07-24T05:28:47.950Z,0.80
2018-07-24T05:29:47.859Z,0.70
2018-07-24T05:30:47.769Z,0.70
2018-07-24T05:31:47.677Z,0.70
2018-07-24T05:32:47.598Z,0.80
2018-07-24T05:33:47.509Z,1.40
2018-07-24T05:34:47.417Z,1.00
2018-07-24T05:35:47.328Z,0.90
2018-07-24T05:36:47.327Z,0.80
2018-07-24T05:37:47.246Z,0.90
2018-07-24T05:38:47.161Z,1.00
2018-07-24T05:39:47.065Z,0.90
2018-07-24T05:40:46.985Z,0.90
2018-07-24T05:41:46.895Z,1.00
2018-07-24T05:42:46.803Z,1.00
2018-07-24T05:43:46.725Z,1.10
2018-07-24T05:44:46.637Z,1.00
2018-07-24T05:45:46.546Z,0.90
2018-07-24T05:46:46.467Z,1.20
2018-07-24T05:47:46.377Z,1.00
2018-07-24T05:48:46.339Z,0.90
2018-07-24T05:49:46.207Z,0.90
2018-07-24T05:50:46.118Z,1.10
2018-07-24T05:51:46.039Z,1.00
2018-07-24T05:52:45.945Z,1.20
2018-07-24T05:53:45.855Z,1.10
2018-07-24T05:54:45.776Z,1.10
2018-07-24T05:55:45.686Z,1.20
2018-07-24T05:56:45.608Z,1.20
2018-07-24T05:57:45.522Z,1.30
2018-07-24T05:58:45.429Z,1.20
2018-07-24T05:59:45.349Z,1.00
2018-07-24T06:00:45.258Z,1.10
2018-07-24T06:01:45.179Z,1.20
2018-07-24T06:02:45.088Z,1.10
2018-07-24T06:03:45.009Z,1.20
2018-07-24T06:04:44.919Z,1.40
2018-07-24T06:05:44.840Z,1.30
2018-07-24T06:06:44.749Z,1.50
2018-07-24T06:07:44.670Z,1.20
2018-07-24T06:08:44.582Z,1.40
2018-07-24T06:09:44.504Z,1.30
2018-07-24T06:10:44.413Z,1.20
2018-07-24T06:11:44.334Z,1.40
2018-07-24T06:12:44.242Z,1.40
2018-07-24T06:13:44.164Z,1.30
2018-07-24T06:14:44.072Z,1.40
2018-07-24T06:15:43.995Z,1.40
2018-07-24T06:16:43.915Z,1.50
2018-07-24T06:17:43.828Z,1.50
2018-07-24T06:18:43.736Z,1.40
2018-07-24T06:19:43.679Z,2.40
2018-07-24T06:20:43.579Z,1.40
2018-07-24T06:21:43.544Z,1.50
2018-07-24T06:22:43.411Z,1.40
2018-07-24T06:23:43.386Z,1.40
2018-07-24T06:24:43.239Z,1.70
2018-07-24T06:25:43.149Z,1.70
2018-07-24T06:26:43.070Z,1.60
2018-07-24T06:27:42.992Z,1.70
2018-07-24T06:28:42.903Z,1.60
2018-07-24T06:29:42.839Z,1.60
2018-07-24T06:30:42.734Z,1.50
2018-07-24T06:31:42.656Z,1.60
2018-07-24T06:32:42.576Z,2.00
2018-07-24T06:33:42.485Z,1.70
2018-07-24T06:34:42.409Z,2.10
2018-07-24T06:35:42.329Z,1.60
2018-07-24T06:36:42.238Z,1.70
2018-07-24T06:37:42.160Z,1.60
2018-07-24T06:38:42.084Z,1.50
2018-07-24T06:39:42.049Z,1.90
2018-07-24T06:40:41.913Z,1.60
2018-07-24T06:41:41.834Z,1.50
2018-07-24T06:42:41.745Z,1.50
2018-07-24T06:43:41.666Z,1.90
2018-07-24T06:44:41.627Z,2.10
2018-07-24T06:45:41.508Z,1.60
2018-07-24T06:46:41.417Z,1.70
2018-07-24T06:47:41.337Z,1.90
2018-07-24T06:48:41.261Z,1.70
2018-07-24T06:49:41.171Z,1.80
2018-07-24T06:50:41.093Z,1.90
2018-07-24T06:51:41.122Z,1.80
2018-07-24T06:52:40.936Z,1.70
2018-07-24T06:53:40.844Z,1.90
2018-07-24T06:54:40.766Z,1.80
2018-07-24T06:55:40.712Z,2.20
2018-07-24T06:56:40.645Z,2.10
2018-07-24T06:57:40.518Z,1.80
2018-07-24T06:58:40.440Z,1.90
2018-07-24T06:59:40.360Z,1.70
2018-07-24T07:00:40.284Z,1.60
2018-07-24T07:01:40.193Z,1.70
2018-07-24T07:02:40.114Z,1.50
2018-07-24T07:03:40.037Z,1.80
2018-07-24T07:04:39.944Z,1.60
2018-07-24T07:05:39.865Z,2.00
2018-07-24T07:06:39.788Z,2.20
2018-07-24T07:07:39.736Z,1.70
2018-07-24T07:08:39.618Z,1.80
2018-07-24T07:09:39.539Z,1.80
2018-07-24T07:10:39.461Z,1.70
2018-07-24T07:11:39.382Z,1.80
2018-07-24T07:12:39.295Z,1.70
2018-07-24T07:13:39.216Z,1.70
2018-07-24T07:14:39.140Z,1.60
2018-07-24T07:15:39.059Z,1.60
2018-07-24T07:16:38.967Z,1.70
2018-07-24T07:17:38.888Z,2.10
2018-07-24T07:18:39.059Z,1.80
2018-07-24T07:19:38.731Z,2.10
2018-07-24T07:20:38.730Z,1.60
2018-07-24T07:21:38.565Z,1.70
2018-07-24T07:22:38.486Z,1.90
2018-07-24T07:23:38.409Z,1.90
2018-07-24T07:24:38.328Z,2.10
2018-07-24T07:25:38.250Z,1.80
2018-07-24T07:26:38.159Z,1.70
2018-07-24T07:27:38.079Z,1.90
2018-07-24T07:28:38.087Z,1.90
2018-07-24T07:29:37.925Z,1.80
2018-07-24T07:30:37.835Z,1.70
2018-07-24T07:31:37.756Z,1.50
2018-07-24T07:32:37.712Z,1.60
2018-07-24T07:33:37.598Z,1.60
2018-07-24T07:34:37.519Z,1.50
2018-07-24T07:35:37.430Z,1.70
2018-07-24T07:36:37.353Z,1.70
2018-07-24T07:37:37.273Z,1.80
2018-07-24T07:38:37.196Z,1.60
2018-07-24T07:39:37.117Z,1.80
2018-07-24T07:40:37.039Z,1.60
2018-07-24T07:41:36.949Z,1.50
2018-07-24T07:42:36.870Z,1.70
2018-07-24T07:43:36.793Z,1.60
2018-07-24T07:44:36.711Z,1.70
2018-07-24T07:45:36.633Z,1.40
2018-07-24T07:46:36.544Z,1.60
2018-07-24T07:47:36.464Z,1.70
2018-07-24T07:48:36.400Z,1.50
2018-07-24T07:49:36.309Z,1.50
2018-07-24T07:50:36.230Z,1.50
2018-07-24T07:51:36.226Z,1.50
2018-07-24T07:52:36.116Z,1.40
2018-07-24T07:53:35.985Z,1.50
2018-07-24T07:54:35.903Z,1.50
2018-07-24T07:55:35.825Z,1.70
2018-07-24T07:56:35.746Z,1.30
2018-07-24T07:57:35.655Z,1.60
2018-07-24T07:58:35.828Z,1.60
2018-07-24T07:59:35.499Z,1.60
2018-07-24T08:00:35.422Z,1.60
2018-07-24T08:01:35.345Z,1.60
2018-07-24T08:02:35.341Z,1.50
2018-07-24T08:03:35.176Z,1.60
2018-07-24T08:04:35.097Z,1.40
2018-07-24T08:05:35.019Z,1.40
2018-07-24T08:06:34.939Z,1.40
2018-07-24T08:07:34.847Z,1.60
2018-07-24T08:08:34.771Z,1.40
2018-07-24T08:09:34.707Z,1.40
2018-07-24T08:10:34.615Z,1.50
2018-07-24T08:11:34.455Z,1.30
2018-07-24T08:12:34.449Z,1.50
2018-07-24T08:13:34.369Z,1.00
2018-07-24T08:14:34.276Z,1.50
2018-07-24T08:15:34.111Z,1.00
2018-07-24T08:16:34.030Z,1.40
2018-07-24T08:17:33.940Z,1.40
2018-07-24T08:18:33.862Z,1.50
2018-07-24T08:19:33.770Z,1.30
2018-07-24T08:20:33.782Z,1.20
2018-07-24T08:21:33.694Z,1.30
2018-07-24T08:22:33.526Z,0.80
2018-07-24T08:23:33.435Z,0.80
2018-07-24T08:24:33.354Z,0.60
2018-07-24T08:25:33.264Z,0.70
2018-07-24T08:26:33.185Z,0.70
2018-07-24T08:27:33.094Z,0.70
2018-07-24T08:28:33.023Z,0.50
2018-07-24T08:29:32.927Z,0.60
2018-07-24T08:30:32.838Z,0.60
2018-07-24T08:31:32.758Z,0.50
2018-07-24T08:32:32.666Z,0.50
2018-07-24T08:33:32.589Z,0.50
2018-07-24T08:34:32.496Z,0.50
2018-07-24T08:35:32.417Z,0.50
2018-07-24T08:36:32.331Z,0.50
2018-07-24T08:37:32.238Z,0.40
2018-07-24T08:38:32.159Z,0.30
2018-07-24T08:39:32.073Z,0.40
2018-07-24T08:40:31.977Z,0.40
2018-07-24T08:41:31.897Z,0.30
2018-07-24T08:42:31.808Z,0.30
2018-07-24T08:43:31.716Z,0.30
2018-07-24T08:44:31.639Z,0.30
2018-07-24T08:45:31.551Z,0.30
2018-07-24T08:46:31.544Z,0.30
2018-07-24T08:47:31.454Z,0.30
2018-07-24T08:48:31.380Z,0.30
2018-07-24T08:49:31.287Z,0.30
2018-07-24T08:50:31.108Z,0.40
2018-07-24T08:51:31.105Z,0.30
2018-07-24T08:52:31.127Z,0.30
2018-07-24T08:53:31.184Z,0.40
2018-07-24T08:54:30.971Z,0.30
2018-07-24T08:55:31.097Z,0.30
2018-07-24T08:56:30.676Z,0.30
2018-07-24T08:57:30.588Z,0.40
2018-07-24T08:58:30.756Z,0.40
2018-07-24T08:59:30.416Z,0.50
2018-07-24T09:00:30.336Z,0.70
2018-07-24T09:01:30.246Z,0.80
2018-07-24T09:02:30.157Z,0.70
2018-07-24T09:03:30.130Z,0.60
2018-07-24T09:04:29.985Z,0.40
2018-07-24T09:05:29.906Z,0.40
2018-07-24T09:06:29.816Z,0.40
2018-07-24T09:07:29.741Z,0.40
2018-07-24T09:08:29.647Z,0.50
2018-07-24T09:09:29.570Z,0.60
2018-07-24T09:10:29.479Z,0.90
2018-07-24T09:11:29.389Z,0.70
2018-07-24T09:12:29.307Z,0.70
2018-07-24T09:13:29.219Z,0.80
2018-07-24T09:14:29.140Z,0.70
2018-07-24T09:15:29.076Z,0.90
2018-07-24T09:16:28.969Z,0.80
2018-07-24T09:17:28.880Z,0.80
2018-07-24T09:18:29.054Z,0.70
2018-07-24T09:19:28.712Z,0.90
2018-07-24T09:20:28.633Z,0.80
2018-07-24T09:21:28.555Z,1.00
2018-07-24T09:22:28.464Z,0.90
2018-07-24T09:23:28.386Z,1.20
2018-07-24T09:24:28.294Z,1.00
2018-07-24T09:25:28.215Z,1.10
2018-07-24T09:26:28.135Z,1.00
2018-07-24T09:27:28.060Z,1.30
2018-07-24T09:28:27.970Z,1.20
2018-07-24T09:29:27.892Z,1.10
2018-07-24T09:30:27.813Z,1.00
2018-07-24T09:31:27.735Z,1.10
2018-07-24T09:32:27.641Z,1.10
2018-07-24T09:33:27.563Z,1.00
2018-07-24T09:34:27.484Z,1.10
2018-07-24T09:35:27.407Z,1.10
2018-07-24T09:36:27.330Z,1.20
2018-07-24T09:37:27.241Z,1.50
2018-07-24T09:38:27.162Z,1.30
2018-07-24T09:39:27.087Z,1.20
2018-07-24T09:40:27.010Z,1.20
2018-07-24T09:41:26.924Z,0.80
2018-07-24T09:42:26.847Z,1.10
2018-07-24T09:43:26.755Z,1.20
2018-07-24T09:44:26.678Z,1.10
2018-07-24T09:45:26.601Z,0.70
2018-07-24T09:46:26.522Z,0.90
2018-07-24T09:47:26.444Z,1.10
2018-07-24T09:48:26.365Z,0.90
2018-07-24T09:49:26.287Z,0.60
2018-07-24T09:50:26.261Z,0.80
2018-07-24T09:51:26.119Z,0.60
2018-07-24T09:52:26.038Z,1.00
2018-07-24T09:53:25.962Z,0.90
2018-07-24T09:54:25.869Z,0.90
2018-07-24T09:55:25.790Z,1.20
2018-07-24T09:56:25.734Z,1.10
2018-07-24T09:57:25.635Z,1.00
2018-07-24T09:58:25.857Z,0.90
2018-07-24T09:59:25.553Z,0.90
2018-07-24T10:00:25.386Z,1.00
2018-07-24T10:01:25.313Z,1.00
2018-07-24T10:02:25.230Z,1.10
2018-07-24T10:03:25.140Z,0.80
2018-07-24T10:04:25.061Z,0.90
2018-07-24T10:05:25.025Z,0.80
2018-07-24T10:06:24.903Z,0.60
2018-07-24T10:07:24.825Z,0.80
2018-07-24T10:08:24.737Z,1.10
2018-07-24T10:09:24.659Z,1.00
2018-07-24T10:10:24.585Z,0.90
2018-07-24T10:11:24.502Z,1.10
2018-07-24T10:12:24.426Z,1.00
2018-07-24T10:13:24.464Z,1.00
2018-07-24T10:14:24.254Z,1.10
2018-07-24T10:15:24.174Z,1.20
2018-07-24T10:16:24.152Z,1.30
2018-07-24T10:17:24.019Z,1.10
2018-07-24T10:18:23.942Z,1.30
2018-07-24T10:19:23.862Z,1.20
2018-07-24T10:20:23.785Z,1.60
2018-07-24T10:21:23.705Z,1.50
2018-07-24T10:22:23.681Z,1.40
2018-07-24T10:23:23.538Z,1.30
2018-07-24T10:24:23.524Z,1.10
2018-07-24T10:25:23.379Z,1.20
2018-07-24T10:26:23.304Z,0.90
2018-07-24T10:27:23.222Z,1.20
2018-07-24T10:28:23.159Z,1.20
2018-07-24T10:29:23.079Z,1.30
2018-07-24T10:30:23.058Z,1.10
2018-07-24T10:31:22.923Z,1.20
2018-07-24T10:32:22.847Z,1.20
2018-07-24T10:33:22.764Z,1.20
2018-07-24T10:34:22.686Z,1.30
2018-07-24T10:35:22.607Z,1.50
2018-07-24T10:36:22.583Z,1.40
2018-07-24T10:37:22.453Z,1.20
2018-07-24T10:38:22.392Z,0.90
2018-07-24T10:39:22.295Z,0.70
2018-07-24T10:40:22.232Z,0.70
2018-07-24T10:41:22.153Z,0.80
2018-07-24T10:42:22.074Z,0.60
2018-07-24T10:43:21.996Z,0.60
2018-07-24T10:44:21.916Z,0.60
2018-07-24T10:45:21.839Z,0.60
2018-07-24T10:46:21.759Z,0.50
2018-07-24T10:47:21.682Z,0.70
2018-07-24T10:48:21.605Z,0.80
2018-07-24T10:49:21.562Z,0.90
2018-07-24T10:50:21.436Z,0.80
2018-07-24T10:51:21.356Z,0.70
2018-07-24T10:52:21.278Z,0.90
2018-07-24T10:53:21.200Z,1.00
2018-07-24T10:54:21.128Z,0.60
2018-07-24T10:55:21.043Z,0.90
2018-07-24T10:56:20.965Z,1.10
2018-07-24T10:57:20.898Z,1.00
2018-07-24T10:58:20.806Z,0.70
2018-07-24T10:59:20.727Z,0.70
2018-07-24T11:00:20.640Z,0.70
2018-07-24T11:01:20.561Z,0.70
2018-07-24T11:02:20.483Z,0.50
2018-07-24T11:03:20.405Z,0.60
2018-07-24T11:04:20.238Z,0.50
2018-07-24T11:05:20.175Z,0.50
2018-07-24T11:06:20.081Z,0.40
2018-07-24T11:07:20.004Z,0.50
2018-07-24T11:08:19.924Z,0.40
2018-07-24T11:09:19.832Z,0.40
2018-07-24T11:10:19.767Z,0.40
2018-07-24T11:11:19.676Z,0.40
2018-07-24T11:12:19.600Z,0.40
2018-07-24T11:13:19.511Z,0.40
2018-07-24T11:14:19.431Z,0.40
2018-07-24T11:15:19.349Z,0.30
2018-07-24T11:16:19.258Z,0.60
2018-07-24T11:17:19.181Z,0.60
2018-07-24T11:18:19.092Z,0.80
2018-07-24T11:19:19.013Z,0.70
2018-07-24T11:20:18.936Z,0.70
2018-07-24T11:21:18.844Z,0.80
2018-07-24T11:22:18.959Z,0.90
2018-07-24T11:23:18.792Z,0.80
2018-07-24T11:24:18.688Z,0.90
2018-07-24T11:25:18.606Z,0.70
2018-07-24T11:26:18.529Z,0.80
2018-07-24T11:27:18.465Z,1.00
2018-07-24T11:28:18.378Z,1.10
2018-07-24T11:29:18.278Z,1.00
2018-07-24T11:30:18.200Z,1.00
2018-07-24T11:31:18.121Z,1.00
2018-07-24T11:32:18.085Z,1.10
2018-07-24T11:33:17.978Z,0.80
2018-07-24T11:34:17.891Z,0.80
2018-07-24T11:35:17.811Z,0.70
2018-07-24T11:36:17.764Z,0.70
2018-07-24T11:37:17.564Z,0.60
2018-07-24T11:38:17.475Z,0.70
2018-07-24T11:39:17.396Z,0.60
2018-07-24T11:40:17.321Z,0.60
2018-07-24T11:41:17.241Z,0.50
2018-07-24T11:42:17.163Z,0.50
2018-07-24T11:43:17.084Z,0.50
2018-07-24T11:44:16.990Z,0.30
2018-07-24T11:45:16.913Z,0.50
2018-07-24T11:46:16.837Z,0.50
2018-07-24T11:47:16.744Z,0.40
2018-07-24T11:48:16.668Z,0.40
2018-07-24T11:49:16.589Z,0.40
2018-07-24T11:50:16.499Z,0.50
2018-07-24T11:51:16.420Z,0.40
2018-07-24T11:52:16.341Z,0.40
2018-07-24T11:53:16.253Z,0.40
2018-07-24T11:54:16.171Z,0.30
2018-07-24T11:55:16.080Z,0.40
2018-07-24T11:56:16.001Z,0.40
2018-07-24T11:57:15.923Z,0.40
2018-07-24T11:58:15.837Z,0.40
2018-07-24T11:59:15.755Z,0.50
2018-07-24T12:00:15.668Z,0.30
2018-07-24T12:01:15.586Z,0.40
2018-07-24T12:02:15.501Z,0.40
2018-07-24T12:03:15.418Z,0.40
2018-07-24T12:04:15.324Z,0.40
2018-07-24T12:05:15.247Z,0.50
2018-07-24T12:06:15.158Z,0.50
2018-07-24T12:07:15.079Z,0.40
2018-07-24T12:08:14.991Z,0.50
2018-07-24T12:09:14.911Z,0.50
2018-07-24T12:10:14.821Z,0.60
2018-07-24T12:11:14.742Z,0.80
2018-07-24T12:12:14.652Z,0.70
2018-07-24T12:13:14.572Z,0.70
2018-07-24T12:14:14.494Z,0.60
2018-07-24T12:15:14.430Z,0.80
2018-07-24T12:16:14.324Z,0.80
2018-07-24T12:17:14.246Z,0.80
2018-07-24T12:18:14.157Z,0.80
2018-07-24T12:19:14.076Z,0.90
2018-07-24T12:20:13.999Z,0.80
2018-07-24T12:21:13.921Z,0.70
2018-07-24T12:22:13.842Z,0.60
2018-07-24T12:23:13.754Z,0.60
2018-07-24T12:24:13.673Z,0.70
2018-07-24T12:25:13.597Z,0.60
2018-07-24T12:26:13.516Z,0.60
2018-07-24T12:27:13.514Z,0.60
2018-07-24T12:28:13.346Z,0.70
2018-07-24T12:29:13.267Z,0.70
2018-07-24T12:30:13.203Z,0.70
2018-07-24T12:31:13.110Z,0.50
2018-07-24T12:32:13.025Z,0.60
2018-07-24T12:33:12.944Z,0.50
2018-07-24T12:34:12.866Z,0.50
2018-07-24T12:35:12.780Z,0.50
2018-07-24T12:36:12.796Z,0.40
2018-07-24T12:37:12.616Z,0.40
2018-07-24T12:38:12.527Z,0.40
2018-07-24T12:39:12.448Z,0.50
2018-07-24T12:40:12.360Z,0.40
2018-07-24T12:41:12.280Z,0.50
2018-07-24T12:42:12.201Z,0.50
2018-07-24T12:43:12.115Z,0.40
2018-07-24T12:44:12.035Z,0.60
2018-07-24T12:45:11.942Z,0.50
2018-07-24T12:46:11.864Z,0.40
2018-07-24T12:47:11.774Z,0.50
2018-07-24T12:48:11.693Z,0.50
2018-07-24T12:49:11.603Z,0.40
2018-07-24T12:50:11.523Z,0.40
2018-07-24T12:51:11.433Z,0.40
2018-07-24T12:52:11.360Z,0.40
2018-07-24T12:53:11.269Z,0.40
2018-07-24T12:54:11.187Z,0.40
2018-07-24T12:55:11.098Z,0.40
2018-07-24T12:56:11.017Z,0.30
2018-07-24T12:57:10.927Z,0.40
2018-07-24T12:58:11.097Z,0.40
2018-07-24T12:59:10.757Z,0.30
2018-07-24T13:00:10.678Z,0.30
2018-07-24T13:01:10.586Z,0.40
2018-07-24T13:02:10.533Z,0.40
2018-07-24T13:03:10.420Z,0.40
2018-07-24T13:04:10.408Z,0.30
2018-07-24T13:05:10.266Z,0.30
2018-07-24T13:06:10.174Z,0.30
2018-07-24T13:07:10.083Z,0.30
2018-07-24T13:08:09.989Z,0.30
2018-07-24T13:09:09.910Z,0.30
2018-07-24T13:10:09.909Z,0.40
2018-07-24T13:11:09.732Z,0.40
2018-07-24T13:12:09.652Z,0.40
2018-07-24T13:13:09.564Z,0.40
2018-07-24T13:14:09.483Z,0.40
2018-07-24T13:15:09.393Z,0.40
2018-07-24T13:16:09.305Z,0.40
2018-07-24T13:17:09.225Z,0.30